Ce_breeze — ELSQ7 — position and weather

sailwx.info

Track history (hours):
 
Tides and Currents Weather Stations Pressure Air Temp Water Temp Dewpoint Dewpoint Depression Visibility Wind Speed Wind Dir Waves Ship Positions

Ce_breeze

Last reported at 2015-Aug-31 18:33 UTC. Time now 2015-Aug-31 21:54 UTC.
Position N 31°08' E 029°35'.

Length 240 m; draft 8 m.

Type: Ship (hazmat cat B). MMSI: 636010400.

Date/timePositionNaut miles runAvg speedWind from/ knotsBaromVisibWave heightAir tempDewpointWater temp
2015-Aug-31 18:33N 31°08' E 029°35'0 0.0
2015-Aug-30 23:32N 31°08' E 029°35'37 1.7
2015-Aug-30 02:07N 31°29' E 028°59'2012.6
2015-Aug-30 00:32N 31°39' E 028°39'1212.3
2015-Aug-29 23:32N 31°45' E 028°26'32411.1
2015-Aug-28 18:18N 35°10' E 023°25'  
2015-Aug-25 08:33N 37°20' E 018°08'1212.6
2015-Aug-25 07:33N 37°23' E 017°53'2612.8
2015-Aug-25 05:33N 37°29' E 017°21'1312.8
2015-Aug-25 04:33N 37°31' E 017°05'2712.5
2015-Aug-25 02:23N 37°38' E 016°32'1612.4
2015-Aug-25 01:04N 37°42' E 016°12'612.4
2015-Aug-25 00:33N 37°43' E 016°04'1212.1
2015-Aug-24 23:33N 37°46' E 015°49'1111.4
2015-Aug-24 22:33N 37°50' E 015°36'1211.8
2015-Aug-24 21:33N 38°02' E 015°32'1212.1
2015-Aug-24 20:33N 38°13' E 015°36'6 6.1
2015-Aug-24 19:33N 38°19' E 015°36'1010.1
2015-Aug-24 18:33N 38°17' E 015°23'7 6.6
2015-Aug-24 17:28N 38°13' E 015°16'0 0.0
2015-Aug-24 16:28N 38°13' E 015°16'0 0.0
2015-Aug-24 15:22N 38°13' E 015°16'0 0.0
2015-Aug-24 14:28N 38°13' E 015°16'0 0.0
2015-Aug-24 13:22N 38°13' E 015°16'0 0.0
2015-Aug-24 12:28N 38°13' E 015°16'0 0.0
2015-Aug-24 11:28N 38°13' E 015°16'0 0.0
2015-Aug-24 10:28N 38°13' E 015°16'0 0.0
2015-Aug-24 09:28N 38°13' E 015°16'0 0.0
2015-Aug-24 08:28N 38°13' E 015°16'0 0.0
2015-Aug-24 07:28N 38°13' E 015°16'0 0.0
2015-Aug-24 06:28N 38°13' E 015°16'0 0.0
2015-Aug-24 05:28N 38°13' E 015°16'0 0.0
2015-Aug-24 04:28N 38°13' E 015°16'0 0.0
2015-Aug-24 03:28N 38°13' E 015°16'0 0.0
2015-Aug-24 02:28N 38°13' E 015°16'0 0.0
2015-Aug-24 01:28N 38°13' E 015°16'0 0.0
2015-Aug-24 00:28N 38°13' E 015°16'0 0.0
2015-Aug-23 23:28N 38°13' E 015°16'0 0.0
2015-Aug-23 22:28N 38°13' E 015°16'0 0.0
2015-Aug-23 21:28N 38°13' E 015°16'0 0.0
2015-Aug-23 20:28N 38°13' E 015°16'0 0.0
2015-Aug-23 19:28N 38°13' E 015°16'0 0.0
2015-Aug-23 18:28N 38°13' E 015°16'0 0.0
2015-Aug-23 17:28N 38°13' E 015°16'0 0.0
2015-Aug-23 16:22N 38°13' E 015°16'0 0.0
2015-Aug-23 15:28N 38°13' E 015°16'0 0.0
2015-Aug-23 14:28N 38°13' E 015°16'0 0.0
2015-Aug-23 13:22N 38°13' E 015°16'0 0.0
2015-Aug-23 12:28N 38°13' E 015°16'0 0.0
2015-Aug-23 11:28N 38°13' E 015°16'0 0.0
2015-Aug-23 10:28N 38°13' E 015°16'0 0.0
2015-Aug-23 09:28N 38°13' E 015°16'0 0.0
2015-Aug-23 08:28N 38°13' E 015°16'0 0.0
2015-Aug-23 07:33N 38°13' E 015°16'2 1.8
2015-Aug-23 06:29N 38°13' E 015°19'  
Track history (hours):
 
Tides and Currents Weather Stations Pressure Air Temp Water Temp Dewpoint Dewpoint Depression Visibility Wind Speed Wind Dir Waves Ship Positions

Ce_breeze

Last reported at 2015-Aug-31 18:33 UTC. Time now 2015-Aug-31 21:54 UTC.
Position N 31°08' E 029°35'.

Length 240 m; draft 8 m.

Type: Ship (hazmat cat B). MMSI: 636010400.

Date/timePositionNaut miles runAvg speedWind from/ knotsBaromVisibWave heightAir tempDewpointWater temp
2015-Aug-31 18:33N 31°08' E 029°35'0 0.0
2015-Aug-30 23:32N 31°08' E 029°35'37 1.7
2015-Aug-30 02:07N 31°29' E 028°59'2012.6
2015-Aug-30 00:32N 31°39' E 028°39'1212.3
2015-Aug-29 23:32N 31°45' E 028°26'32411.1
2015-Aug-28 18:18N 35°10' E 023°25'  
2015-Aug-25 08:33N 37°20' E 018°08'1212.6
2015-Aug-25 07:33N 37°23' E 017°53'2612.8
2015-Aug-25 05:33N 37°29' E 017°21'1312.8
2015-Aug-25 04:33N 37°31' E 017°05'2712.5
2015-Aug-25 02:23N 37°38' E 016°32'1612.4
2015-Aug-25 01:04N 37°42' E 016°12'612.4
2015-Aug-25 00:33N 37°43' E 016°04'1212.1
2015-Aug-24 23:33N 37°46' E 015°49'1111.4
2015-Aug-24 22:33N 37°50' E 015°36'1211.8
2015-Aug-24 21:33N 38°02' E 015°32'1212.1
2015-Aug-24 20:33N 38°13' E 015°36'6 6.1
2015-Aug-24 19:33N 38°19' E 015°36'1010.1
2015-Aug-24 18:33N 38°17' E 015°23'7 6.6
2015-Aug-24 17:28N 38°13' E 015°16'0 0.0
2015-Aug-24 16:28N 38°13' E 015°16'0 0.0
2015-Aug-24 15:22N 38°13' E 015°16'0 0.0
2015-Aug-24 14:28N 38°13' E 015°16'0 0.0
2015-Aug-24 13:22N 38°13' E 015°16'0 0.0
2015-Aug-24 12:28N 38°13' E 015°16'0 0.0
2015-Aug-24 11:28N 38°13' E 015°16'0 0.0
2015-Aug-24 10:28N 38°13' E 015°16'0 0.0
2015-Aug-24 09:28N 38°13' E 015°16'0 0.0
2015-Aug-24 08:28N 38°13' E 015°16'0 0.0
2015-Aug-24 07:28N 38°13' E 015°16'0 0.0
2015-Aug-24 06:28N 38°13' E 015°16'0 0.0
2015-Aug-24 05:28N 38°13' E 015°16'0 0.0
2015-Aug-24 04:28N 38°13' E 015°16'0 0.0
2015-Aug-24 03:28N 38°13' E 015°16'0 0.0
2015-Aug-24 02:28N 38°13' E 015°16'0 0.0
2015-Aug-24 01:28N 38°13' E 015°16'0 0.0
2015-Aug-24 00:28N 38°13' E 015°16'0 0.0
2015-Aug-23 23:28N 38°13' E 015°16'0 0.0
2015-Aug-23 22:28N 38°13' E 015°16'0 0.0
2015-Aug-23 21:28N 38°13' E 015°16'0 0.0
2015-Aug-23 20:28N 38°13' E 015°16'0 0.0
2015-Aug-23 19:28N 38°13' E 015°16'0 0.0
2015-Aug-23 18:28N 38°13' E 015°16'0 0.0
2015-Aug-23 17:28N 38°13' E 015°16'0 0.0
2015-Aug-23 16:22N 38°13' E 015°16'0 0.0
2015-Aug-23 15:28N 38°13' E 015°16'0 0.0
2015-Aug-23 14:28N 38°13' E 015°16'0 0.0
2015-Aug-23 13:22N 38°13' E 015°16'0 0.0
2015-Aug-23 12:28N 38°13' E 015°16'0 0.0
2015-Aug-23 11:28N 38°13' E 015°16'0 0.0
2015-Aug-23 10:28N 38°13' E 015°16'0 0.0
2015-Aug-23 09:28N 38°13' E 015°16'0 0.0
2015-Aug-23 08:28N 38°13' E 015°16'0 0.0
2015-Aug-23 07:33N 38°13' E 015°16'2 1.8
2015-Aug-23 06:29N 38°13' E 015°19'  

Dump ship's entire track history